WEATHER

Warnervale Skycam

North West View

North West View

South West View

South West View

Sydney Airport Forecast

  • YSSY TAF

    TAF YSSY 011703Z 0118/0300 28015KT CAVOK FM020100 25018G28KT 9999 -SHRA FEW030 SCT050 FM020900 28015KT CAVOK FM021800 23015KT CAVOK RMK FM011800 MOD TURB BLW 5000FT T 09 10 11 15 Q 1011 1013 1013 1012

  • YSSY METAR

    TTF METAR YSSY 011730Z 28017KT CAVOK 10/02 Q1011 RMK RF00.0/000.0 FM1730 MOD TURB BLW 5000FT

All information provided on this page is for general information and should NOT be used for flight planning.